Griston, United Kingdom
Current Conditions -  °F | °C
As of 11:50 PM on Sunday 25 Jan 2015 (Local Time) from EGYM Reporting Station
Broken Clouds Broken Clouds  
Wind Chill: 39°   Ceiling: 1300
Heat Index: 45°   Visibility: 6mi
Dew Point: 43°   Wind: 10mph
Humidity: 93%   Direction: 200°SSW
Pressure: 30.18"   Gusts: NA
Location:  52.56°N, 0.86°E
Report Text: EGYM 252350Z 20009KT 9999 BKN013 07/06 Q1022 GRN
Loading
Personal Weather Stations






























Interactive Weather Map New forecast layout! Learn more

10-Day Weather Forecast

Advertisements
Track Severe Weather on mobile